sensor_id;sensor_type;location;lat;lon;timestamp;pressure;altitude;pressure_sealevel;temperature;humidity
33153;BME280;19509;43.862;26.176;2023-05-11T00:01:06;101346.88;;;6.44;87.47
33153;BME280;19509;43.862;26.176;2023-05-11T00:03:32;101349.50;;;6.27;87.28
33153;BME280;19509;43.862;26.176;2023-05-11T00:05:58;101344.66;;;6.23;88.36
33153;BME280;19509;43.862;26.176;2023-05-11T00:08:24;101348.28;;;6.05;88.94
33153;BME280;19509;43.862;26.176;2023-05-11T00:10:49;101344.47;;;6.24;88.95
33153;BME280;19509;43.862;26.176;2023-05-11T00:13:15;101341.00;;;6.32;88.03
33153;BME280;19509;43.862;26.176;2023-05-11T00:15:41;101346.44;;;6.06;88.80
33153;BME280;19509;43.862;26.176;2023-05-11T00:18:06;101352.50;;;6.24;88.29
33153;BME280;19509;43.862;26.176;2023-05-11T00:20:32;101346.00;;;6.27;88.36
33153;BME280;19509;43.862;26.176;2023-05-11T00:22:58;101346.19;;;6.33;87.98
33153;BME280;19509;43.862;26.176;2023-05-11T00:25:24;101344.69;;;6.39;87.67
33153;BME280;19509;43.862;26.176;2023-05-11T00:27:49;101344.34;;;6.34;88.18
33153;BME280;19509;43.862;26.176;2023-05-11T00:30:15;101342.84;;;6.39;88.10
33153;BME280;19509;43.862;26.176;2023-05-11T00:32:41;101345.03;;;6.44;87.99
33153;BME280;19509;43.862;26.176;2023-05-11T00:35:08;101342.66;;;6.33;88.42
33153;BME280;19509;43.862;26.176;2023-05-11T00:37:38;101346.19;;;6.42;88.27
33153;BME280;19509;43.862;26.176;2023-05-11T00:40:05;101332.81;;;6.25;88.97
33153;BME280;19509;43.862;26.176;2023-05-11T00:42:30;101334.97;;;6.22;88.13
33153;BME280;19509;43.862;26.176;2023-05-11T00:44:56;101340.59;;;6.02;87.95
33153;BME280;19509;43.862;26.176;2023-05-11T00:47:22;101334.03;;;5.62;88.47
33153;BME280;19509;43.862;26.176;2023-05-11T00:49:49;101331.69;;;5.59;88.95
33153;BME280;19509;43.862;26.176;2023-05-11T00:52:16;101326.16;;;5.53;89.75
33153;BME280;19509;43.862;26.176;2023-05-11T00:54:42;101323.97;;;5.48;89.77
33153;BME280;19509;43.862;26.176;2023-05-11T00:57:08;101324.91;;;5.73;89.77
33153;BME280;19509;43.862;26.176;2023-05-11T00:59:34;101324.25;;;5.37;90.59
33153;BME280;19509;43.862;26.176;2023-05-11T01:02:00;101337.72;;;5.35;90.67
33153;BME280;19509;43.862;26.176;2023-05-11T01:04:26;101330.22;;;5.31;91.28
33153;BME280;19509;43.862;26.176;2023-05-11T01:07:08;101332.91;;;5.39;90.86
33153;BME280;19509;43.862;26.176;2023-05-11T01:17:35;101333.28;;;5.44;88.00
33153;BME280;19509;43.862;26.176;2023-05-11T01:20:04;101333.75;;;5.39;88.34
33153;BME280;19509;43.862;26.176;2023-05-11T01:22:54;101339.97;;;5.22;88.71
33153;BME280;19509;43.862;26.176;2023-05-11T01:29:00;101330.25;;;5.13;89.19
33153;BME280;19509;43.862;26.176;2023-05-11T01:31:31;101328.13;;;5.16;89.94
33153;BME280;19509;43.862;26.176;2023-05-11T01:34:01;101330.91;;;4.89;90.62
33153;BME280;19509;43.862;26.176;2023-05-11T01:36:33;101332.16;;;5.03;91.05
33153;BME280;19509;43.862;26.176;2023-05-11T01:39:03;101328.56;;;4.86;91.21
33153;BME280;19509;43.862;26.176;2023-05-11T01:41:32;101336.94;;;4.91;91.38
33153;BME280;19509;43.862;26.176;2023-05-11T01:44:00;101329.50;;;5.03;91.26
33153;BME280;19509;43.862;26.176;2023-05-11T01:46:29;101329.66;;;5.01;91.50
33153;BME280;19509;43.862;26.176;2023-05-11T01:48:57;101329.47;;;5.20;90.64
33153;BME280;19509;43.862;26.176;2023-05-11T01:51:26;101328.47;;;5.21;89.88
33153;BME280;19509;43.862;26.176;2023-05-11T01:53:54;101322.44;;;5.19;90.31
33153;BME280;19509;43.862;26.176;2023-05-11T01:56:20;101327.78;;;5.19;89.51
33153;BME280;19509;43.862;26.176;2023-05-11T01:58:48;101330.47;;;4.93;89.22
33153;BME280;19509;43.862;26.176;2023-05-11T02:01:16;101330.25;;;4.87;90.09
33153;BME280;19509;43.862;26.176;2023-05-11T02:03:45;101329.97;;;4.98;89.57
33153;BME280;19509;43.862;26.176;2023-05-11T02:06:12;101331.91;;;4.88;89.69
33153;BME280;19509;43.862;26.176;2023-05-11T02:08:40;101334.66;;;4.78;90.37
33153;BME280;19509;43.862;26.176;2023-05-11T02:11:07;101332.75;;;4.70;91.43
33153;BME280;19509;43.862;26.176;2023-05-11T02:13:35;101329.84;;;4.82;91.27
33153;BME280;19509;43.862;26.176;2023-05-11T02:16:05;101329.84;;;4.82;90.54
33153;BME280;19509;43.862;26.176;2023-05-11T02:18:31;101335.22;;;4.64;90.77
33153;BME280;19509;43.862;26.176;2023-05-11T02:20:58;101339.00;;;4.61;91.44
33153;BME280;19509;43.862;26.176;2023-05-11T02:23:25;101330.72;;;4.64;91.22
33153;BME280;19509;43.862;26.176;2023-05-11T02:25:52;101330.34;;;4.59;90.80
33153;BME280;19509;43.862;26.176;2023-05-11T02:28:18;101328.28;;;4.53;90.71
33153;BME280;19509;43.862;26.176;2023-05-11T02:30:46;101328.03;;;4.64;90.84
33153;BME280;19509;43.862;26.176;2023-05-11T02:33:48;101331.47;;;4.74;90.05
33153;BME280;19509;43.862;26.176;2023-05-11T02:36:01;101331.41;;;4.66;89.97
33153;BME280;19509;43.862;26.176;2023-05-11T02:38:32;101329.97;;;4.36;90.81
33153;BME280;19509;43.862;26.176;2023-05-11T02:41:05;101334.69;;;4.42;91.38
33153;BME280;19509;43.862;26.176;2023-05-11T02:43:34;101335.16;;;4.56;90.94
33153;BME280;19509;43.862;26.176;2023-05-11T02:46:04;101336.34;;;4.43;91.75
33153;BME280;19509;43.862;26.176;2023-05-11T02:48:36;101331.16;;;4.24;92.12
33153;BME280;19509;43.862;26.176;2023-05-11T02:51:05;101341.09;;;4.32;92.26
33153;BME280;19509;43.862;26.176;2023-05-11T02:53:33;101347.00;;;4.25;92.68
33153;BME280;19509;43.862;26.176;2023-05-11T02:56:00;101352.88;;;4.29;92.03
33153;BME280;19509;43.862;26.176;2023-05-11T02:58:27;101354.53;;;4.30;92.95
33153;BME280;19509;43.862;26.176;2023-05-11T03:00:53;101352.94;;;4.37;92.28
33153;BME280;19509;43.862;26.176;2023-05-11T03:03:20;101352.66;;;3.95;92.76
33153;BME280;19509;43.862;26.176;2023-05-11T03:05:45;101351.41;;;4.17;94.19
33153;BME280;19509;43.862;26.176;2023-05-11T03:08:11;101350.56;;;4.34;94.76
33153;BME280;19509;43.862;26.176;2023-05-11T03:10:39;101356.47;;;4.56;95.22
33153;BME280;19509;43.862;26.176;2023-05-11T03:13:06;101355.31;;;4.58;95.52
33153;BME280;19509;43.862;26.176;2023-05-11T03:15:33;101363.06;;;4.87;95.00
33153;BME280;19509;43.862;26.176;2023-05-11T03:17:58;101358.66;;;4.96;94.07
33153;BME280;19509;43.862;26.176;2023-05-11T03:20:26;101356.34;;;5.01;93.60
33153;BME280;19509;43.862;26.176;2023-05-11T03:22:52;101366.28;;;4.91;93.06
33153;BME280;19509;43.862;26.176;2023-05-11T03:25:19;101358.31;;;4.99;92.28
33153;BME280;19509;43.862;26.176;2023-05-11T03:27:45;101366.03;;;5.28;91.16
33153;BME280;19509;43.862;26.176;2023-05-11T03:30:13;101373.22;;;5.28;90.32
33153;BME280;19509;43.862;26.176;2023-05-11T03:32:39;101371.38;;;5.28;90.61
33153;BME280;19509;43.862;26.176;2023-05-11T03:35:05;101366.75;;;5.30;90.49
33153;BME280;19509;43.862;26.176;2023-05-11T03:37:32;101370.84;;;5.25;90.72
33153;BME280;19509;43.862;26.176;2023-05-11T03:39:58;101371.59;;;5.35;91.32
33153;BME280;19509;43.862;26.176;2023-05-11T03:42:26;101379.53;;;5.53;91.19
33153;BME280;19509;43.862;26.176;2023-05-11T03:44:54;101376.84;;;5.79;90.57
33153;BME280;19509;43.862;26.176;2023-05-11T03:47:24;101377.63;;;5.97;89.89
33153;BME280;19509;43.862;26.176;2023-05-11T03:49:51;101389.25;;;5.88;90.47
33153;BME280;19509;43.862;26.176;2023-05-11T03:52:18;101385.41;;;5.90;90.20
33153;BME280;19509;43.862;26.176;2023-05-11T03:54:44;101381.88;;;6.16;89.72
33153;BME280;19509;43.862;26.176;2023-05-11T03:57:10;101381.13;;;6.40;88.80
33153;BME280;19509;43.862;26.176;2023-05-11T03:59:36;101386.78;;;6.37;88.73
33153;BME280;19509;43.862;26.176;2023-05-11T04:02:03;101394.34;;;6.50;88.54
33153;BME280;19509;43.862;26.176;2023-05-11T04:04:29;101389.81;;;6.50;88.22
33153;BME280;19509;43.862;26.176;2023-05-11T04:06:55;101396.38;;;6.56;88.46
33153;BME280;19509;43.862;26.176;2023-05-11T04:09:21;101395.69;;;6.62;89.05
33153;BME280;19509;43.862;26.176;2023-05-11T04:11:47;101400.56;;;6.67;88.70
33153;BME280;19509;43.862;26.176;2023-05-11T04:14:12;101405.09;;;6.91;87.34
33153;BME280;19509;43.862;26.176;2023-05-11T04:16:38;101405.13;;;7.07;86.51
33153;BME280;19509;43.862;26.176;2023-05-11T04:19:03;101396.41;;;7.05;87.55
33153;BME280;19509;43.862;26.176;2023-05-11T04:21:30;101403.41;;;7.22;87.10
33153;BME280;19509;43.862;26.176;2023-05-11T04:23:57;101405.72;;;7.50;87.58
33153;BME280;19509;43.862;26.176;2023-05-11T04:26:22;101407.06;;;7.62;87.21
33153;BME280;19509;43.862;26.176;2023-05-11T04:28:48;101406.69;;;7.73;86.45
33153;BME280;19509;43.862;26.176;2023-05-11T04:31:13;101402.50;;;7.71;86.49
33153;BME280;19509;43.862;26.176;2023-05-11T04:33:39;101407.97;;;7.94;86.28
33153;BME280;19509;43.862;26.176;2023-05-11T04:36:04;101408.34;;;8.22;84.90
33153;BME280;19509;43.862;26.176;2023-05-11T04:38:30;101407.44;;;8.46;86.07
33153;BME280;19509;43.862;26.176;2023-05-11T04:40:56;101408.19;;;8.63;85.75
33153;BME280;19509;43.862;26.176;2023-05-11T04:43:21;101412.19;;;8.59;83.40
33153;BME280;19509;43.862;26.176;2023-05-11T04:45:48;101407.41;;;8.77;85.06
33153;BME280;19509;43.862;26.176;2023-05-11T04:48:14;101412.47;;;8.95;84.33
33153;BME280;19509;43.862;26.176;2023-05-11T04:50:39;101412.88;;;9.07;83.00
33153;BME280;19509;43.862;26.176;2023-05-11T04:53:05;101414.84;;;9.13;83.80
33153;BME280;19509;43.862;26.176;2023-05-11T04:55:30;101409.22;;;9.22;82.60
33153;BME280;19509;43.862;26.176;2023-05-11T04:57:56;101412.44;;;9.56;82.73
33153;BME280;19509;43.862;26.176;2023-05-11T05:00:21;101422.09;;;9.65;80.27
33153;BME280;19509;43.862;26.176;2023-05-11T05:02:47;101419.78;;;9.77;78.05
33153;BME280;19509;43.862;26.176;2023-05-11T05:05:14;101423.22;;;10.00;77.55
33153;BME280;19509;43.862;26.176;2023-05-11T05:07:40;101412.78;;;10.41;79.81
33153;BME280;19509;43.862;26.176;2023-05-11T05:10:06;101415.88;;;10.75;75.73
33153;BME280;19509;43.862;26.176;2023-05-11T05:12:34;101418.25;;;11.06;75.27
33153;BME280;19509;43.862;26.176;2023-05-11T05:15:01;101409.97;;;11.07;74.71
33153;BME280;19509;43.862;26.176;2023-05-11T05:17:27;101423.63;;;11.55;72.90
33153;BME280;19509;43.862;26.176;2023-05-11T05:19:53;101416.19;;;12.27;70.57
33153;BME280;19509;43.862;26.176;2023-05-11T05:22:18;101412.13;;;12.03;70.08
33153;BME280;19509;43.862;26.176;2023-05-11T05:24:44;101413.72;;;11.91;70.53
33153;BME280;19509;43.862;26.176;2023-05-11T05:27:09;101416.56;;;11.82;70.42
33153;BME280;19509;43.862;26.176;2023-05-11T05:29:35;101416.03;;;11.66;71.98
33153;BME280;19509;43.862;26.176;2023-05-11T05:32:00;101419.16;;;11.69;72.30
33153;BME280;19509;43.862;26.176;2023-05-11T05:34:26;101417.25;;;11.91;71.21
33153;BME280;19509;43.862;26.176;2023-05-11T05:36:51;101416.75;;;12.16;69.13
33153;BME280;19509;43.862;26.176;2023-05-11T05:39:17;101417.34;;;12.11;68.67
33153;BME280;19509;43.862;26.176;2023-05-11T05:41:42;101417.16;;;12.13;68.98
33153;BME280;19509;43.862;26.176;2023-05-11T05:44:08;101409.00;;;11.99;70.55
33153;BME280;19509;43.862;26.176;2023-05-11T05:46:33;101408.59;;;11.74;70.05
33153;BME280;19509;43.862;26.176;2023-05-11T05:48:59;101407.56;;;12.03;71.08
33153;BME280;19509;43.862;26.176;2023-05-11T05:51:25;101412.84;;;12.25;70.79
33153;BME280;19509;43.862;26.176;2023-05-11T05:53:50;101410.41;;;12.37;69.11
33153;BME280;19509;43.862;26.176;2023-05-11T05:56:16;101411.22;;;12.30;69.11
33153;BME280;19509;43.862;26.176;2023-05-11T05:58:41;101421.94;;;12.11;69.01
33153;BME280;19509;43.862;26.176;2023-05-11T06:01:07;101424.75;;;11.96;70.60
33153;BME280;19509;43.862;26.176;2023-05-11T06:03:33;101422.75;;;12.11;70.49
33153;BME280;19509;43.862;26.176;2023-05-11T06:05:58;101419.09;;;12.32;68.79
33153;BME280;19509;43.862;26.176;2023-05-11T06:08:26;101427.03;;;12.40;69.33
33153;BME280;19509;43.862;26.176;2023-05-11T06:10:52;101436.34;;;12.31;68.10
33153;BME280;19509;43.862;26.176;2023-05-11T06:13:17;101434.78;;;12.63;68.21
33153;BME280;19509;43.862;26.176;2023-05-11T06:15:43;101438.16;;;12.78;68.56
33153;BME280;19509;43.862;26.176;2023-05-11T06:18:09;101434.22;;;12.74;67.46
33153;BME280;19509;43.862;26.176;2023-05-11T06:20:34;101433.22;;;12.95;67.42
33153;BME280;19509;43.862;26.176;2023-05-11T06:23:00;101434.00;;;12.83;65.87
33153;BME280;19509;43.862;26.176;2023-05-11T06:25:26;101433.38;;;12.87;65.83
33153;BME280;19509;43.862;26.176;2023-05-11T06:27:52;101440.44;;;12.75;64.88
33153;BME280;19509;43.862;26.176;2023-05-11T06:30:18;101429.00;;;12.73;65.48
33153;BME280;19509;43.862;26.176;2023-05-11T06:32:43;101426.56;;;12.98;67.37
33153;BME280;19509;43.862;26.176;2023-05-11T06:35:08;101427.19;;;13.07;64.60
33153;BME280;19509;43.862;26.176;2023-05-11T06:37:34;101426.38;;;13.13;65.08
33153;BME280;19509;43.862;26.176;2023-05-11T06:40:00;101427.44;;;13.52;66.49
33153;BME280;19509;43.862;26.176;2023-05-11T06:42:25;101423.31;;;13.36;61.67
33153;BME280;19509;43.862;26.176;2023-05-11T06:44:51;101422.66;;;13.47;62.87
33153;BME280;19509;43.862;26.176;2023-05-11T06:47:17;101419.50;;;13.83;63.81
33153;BME280;19509;43.862;26.176;2023-05-11T06:49:42;101416.97;;;13.95;58.38
33153;BME280;19509;43.862;26.176;2023-05-11T06:52:08;101418.00;;;13.94;59.88
33153;BME280;19509;43.862;26.176;2023-05-11T06:54:34;101410.03;;;14.12;59.86
33153;BME280;19509;43.862;26.176;2023-05-11T06:56:59;101413.88;;;13.85;58.87
33153;BME280;19509;43.862;26.176;2023-05-11T06:59:25;101419.44;;;14.10;61.01
33153;BME280;19509;43.862;26.176;2023-05-11T07:01:51;101423.56;;;14.12;58.87
33153;BME280;19509;43.862;26.176;2023-05-11T07:04:17;101419.47;;;13.96;59.68
33153;BME280;19509;43.862;26.176;2023-05-11T07:06:42;101422.53;;;14.20;60.16
33153;BME280;19509;43.862;26.176;2023-05-11T07:09:08;101422.00;;;14.36;56.85
33153;BME280;19509;43.862;26.176;2023-05-11T07:11:34;101423.09;;;14.29;60.63
33153;BME280;19509;43.862;26.176;2023-05-11T07:14:00;101428.28;;;14.37;57.53
33153;BME280;19509;43.862;26.176;2023-05-11T07:16:26;101420.56;;;14.40;57.04
33153;BME280;19509;43.862;26.176;2023-05-11T07:18:52;101430.09;;;14.56;56.04
33153;BME280;19509;43.862;26.176;2023-05-11T07:21:17;101428.59;;;14.60;55.51
33153;BME280;19509;43.862;26.176;2023-05-11T07:23:43;101428.16;;;14.63;57.46
33153;BME280;19509;43.862;26.176;2023-05-11T07:26:09;101430.13;;;14.43;53.74
33153;BME280;19509;43.862;26.176;2023-05-11T07:28:35;101426.75;;;14.61;57.40
33153;BME280;19509;43.862;26.176;2023-05-11T07:31:01;101427.31;;;14.70;52.73
33153;BME280;19509;43.862;26.176;2023-05-11T07:33:26;101425.66;;;14.69;53.81
33153;BME280;19509;43.862;26.176;2023-05-11T07:35:52;101428.75;;;15.04;55.83
33153;BME280;19509;43.862;26.176;2023-05-11T07:38:17;101427.06;;;15.09;54.32
33153;BME280;19509;43.862;26.176;2023-05-11T07:40:43;101426.53;;;14.94;50.96
33153;BME280;19509;43.862;26.176;2023-05-11T07:43:09;101421.53;;;14.59;52.13
33153;BME280;19509;43.862;26.176;2023-05-11T07:45:34;101423.81;;;14.94;51.65
33153;BME280;19509;43.862;26.176;2023-05-11T07:48:00;101427.47;;;14.81;51.82
33153;BME280;19509;43.862;26.176;2023-05-11T07:50:25;101426.84;;;14.79;52.40
33153;BME280;19509;43.862;26.176;2023-05-11T07:52:51;101427.69;;;14.73;52.59
33153;BME280;19509;43.862;26.176;2023-05-11T07:55:17;101427.50;;;15.06;52.67
33153;BME280;19509;43.862;26.176;2023-05-11T07:57:44;101423.13;;;15.30;51.70
33153;BME280;19509;43.862;26.176;2023-05-11T08:00:10;101420.09;;;15.20;51.70
33153;BME280;19509;43.862;26.176;2023-05-11T08:02:36;101403.94;;;15.32;52.66
33153;BME280;19509;43.862;26.176;2023-05-11T08:05:01;101414.44;;;15.47;54.87
33153;BME280;19509;43.862;26.176;2023-05-11T08:07:27;101414.91;;;15.62;53.02
33153;BME280;19509;43.862;26.176;2023-05-11T08:09:53;101413.84;;;15.88;52.40
33153;BME280;19509;43.862;26.176;2023-05-11T08:12:18;101408.03;;;16.03;51.38
33153;BME280;19509;43.862;26.176;2023-05-11T08:14:44;101408.91;;;16.03;51.47
33153;BME280;19509;43.862;26.176;2023-05-11T08:17:09;101408.19;;;16.26;50.59
33153;BME280;19509;43.862;26.176;2023-05-11T08:19:35;101411.66;;;16.33;50.53
33153;BME280;19509;43.862;26.176;2023-05-11T08:22:01;101404.22;;;16.11;48.16
33153;BME280;19509;43.862;26.176;2023-05-11T08:24:26;101405.41;;;16.15;51.38
33153;BME280;19509;43.862;26.176;2023-05-11T08:26:52;101410.00;;;15.96;47.50
33153;BME280;19509;43.862;26.176;2023-05-11T08:29:18;101404.38;;;15.97;47.96
33153;BME280;19509;43.862;26.176;2023-05-11T08:31:43;101399.53;;;15.99;47.42
33153;BME280;19509;43.862;26.176;2023-05-11T08:34:09;101406.69;;;16.12;48.52
33153;BME280;19509;43.862;26.176;2023-05-11T08:36:35;101402.47;;;16.35;48.17
33153;BME280;19509;43.862;26.176;2023-05-11T08:39:01;101392.34;;;16.42;49.46
33153;BME280;19509;43.862;26.176;2023-05-11T08:41:27;101404.13;;;16.66;46.59
33153;BME280;19509;43.862;26.176;2023-05-11T08:43:54;101394.59;;;16.26;46.92
33153;BME280;19509;43.862;26.176;2023-05-11T08:46:23;101395.63;;;16.14;46.37
33153;BME280;19509;43.862;26.176;2023-05-11T08:48:51;101400.41;;;16.30;49.67
33153;BME280;19509;43.862;26.176;2023-05-11T08:51:17;101400.19;;;16.80;52.02
33153;BME280;19509;43.862;26.176;2023-05-11T08:53:42;101402.94;;;16.92;45.70
33153;BME280;19509;43.862;26.176;2023-05-11T08:56:09;101390.66;;;16.71;47.92
33153;BME280;19509;43.862;26.176;2023-05-11T08:58:37;101396.91;;;16.90;47.54
33153;BME280;19509;43.862;26.176;2023-05-11T09:01:04;101391.50;;;16.71;49.14
33153;BME280;19509;43.862;26.176;2023-05-11T09:03:30;101388.19;;;17.11;47.08
33153;BME280;19509;43.862;26.176;2023-05-11T09:05:57;101393.09;;;16.91;48.70
33153;BME280;19509;43.862;26.176;2023-05-11T09:08:25;101380.38;;;17.15;49.36
33153;BME280;19509;43.862;26.176;2023-05-11T09:10:54;101383.59;;;17.23;47.68
33153;BME280;19509;43.862;26.176;2023-05-11T09:13:20;101377.13;;;16.22;50.06
33153;BME280;19509;43.862;26.176;2023-05-11T09:15:46;101374.66;;;16.81;50.00
33153;BME280;19509;43.862;26.176;2023-05-11T09:18:11;101368.91;;;17.01;45.86
33153;BME280;19509;43.862;26.176;2023-05-11T09:20:42;101372.69;;;16.88;45.69
33153;BME280;19509;43.862;26.176;2023-05-11T09:23:08;101371.25;;;16.55;46.49
33153;BME280;19509;43.862;26.176;2023-05-11T09:25:36;101366.56;;;17.28;46.74
33153;BME280;19509;43.862;26.176;2023-05-11T09:28:03;101375.31;;;17.18;49.99
33153;BME280;19509;43.862;26.176;2023-05-11T09:30:29;101367.06;;;16.41;45.27
33153;BME280;19509;43.862;26.176;2023-05-11T09:32:59;101362.28;;;16.67;46.42
33153;BME280;19509;43.862;26.176;2023-05-11T09:35:29;101368.59;;;17.33;45.31
33153;BME280;19509;43.862;26.176;2023-05-11T09:38:00;101359.34;;;17.22;48.09
33153;BME280;19509;43.862;26.176;2023-05-11T09:40:27;101362.19;;;17.15;46.94
33153;BME280;19509;43.862;26.176;2023-05-11T09:42:53;101356.50;;;17.17;48.08
33153;BME280;19509;43.862;26.176;2023-05-11T09:45:44;101367.28;;;17.70;48.50
33153;BME280;19509;43.862;26.176;2023-05-11T09:48:29;101351.06;;;17.05;44.03
33153;BME280;19509;43.862;26.176;2023-05-11T09:51:03;101355.81;;;17.33;44.93
33153;BME280;19509;43.862;26.176;2023-05-11T09:53:42;101353.09;;;17.45;44.83
33153;BME280;19509;43.862;26.176;2023-05-11T09:56:13;101356.38;;;17.59;43.11
33153;BME280;19509;43.862;26.176;2023-05-11T09:58:51;101349.78;;;17.66;43.26
33153;BME280;19509;43.862;26.176;2023-05-11T10:01:27;101346.75;;;18.03;45.07
33153;BME280;19509;43.862;26.176;2023-05-11T10:03:53;101343.84;;;17.58;42.50
33153;BME280;19509;43.862;26.176;2023-05-11T10:06:19;101346.53;;;16.87;44.03
33153;BME280;19509;43.862;26.176;2023-05-11T10:08:44;101346.78;;;16.55;43.23
33153;BME280;19509;43.862;26.176;2023-05-11T10:11:10;101345.25;;;16.60;44.13
33153;BME280;19509;43.862;26.176;2023-05-11T10:13:36;101343.28;;;17.09;44.77
33153;BME280;19509;43.862;26.176;2023-05-11T10:16:02;101341.38;;;17.56;42.41
33153;BME280;19509;43.862;26.176;2023-05-11T10:18:31;101342.91;;;17.05;41.52
33153;BME280;19509;43.862;26.176;2023-05-11T10:20:58;101339.38;;;16.63;43.62
33153;BME280;19509;43.862;26.176;2023-05-11T10:23:24;101331.66;;;16.90;46.61
33153;BME280;19509;43.862;26.176;2023-05-11T10:25:54;101333.22;;;17.21;44.10
33153;BME280;19509;43.862;26.176;2023-05-11T10:28:20;101327.31;;;18.00;44.60
33153;BME280;19509;43.862;26.176;2023-05-11T10:30:46;101322.16;;;17.86;44.38
33153;BME280;19509;43.862;26.176;2023-05-11T10:33:12;101326.84;;;17.27;43.00
33153;BME280;19509;43.862;26.176;2023-05-11T10:35:38;101332.25;;;17.03;42.24
33153;BME280;19509;43.862;26.176;2023-05-11T10:38:08;101323.34;;;16.43;45.00
33153;BME280;19509;43.862;26.176;2023-05-11T10:40:38;101320.91;;;17.07;46.25
33153;BME280;19509;43.862;26.176;2023-05-11T10:45:59;101317.09;;;18.18;42.47
33153;BME280;19509;43.862;26.176;2023-05-11T10:51:29;101311.06;;;17.53;42.88
33153;BME280;19509;43.862;26.176;2023-05-11T10:54:25;101315.72;;;17.05;43.35
33153;BME280;19509;43.862;26.176;2023-05-11T11:02:20;101313.16;;;17.98;45.83
33153;BME280;19509;43.862;26.176;2023-05-11T11:04:48;101316.34;;;17.94;43.65
33153;BME280;19509;43.862;26.176;2023-05-11T11:07:14;101311.88;;;17.88;44.43
33153;BME280;19509;43.862;26.176;2023-05-11T11:09:51;101311.44;;;18.08;43.66
33153;BME280;19509;43.862;26.176;2023-05-11T11:12:17;101309.72;;;18.76;41.32
33153;BME280;19509;43.862;26.176;2023-05-11T11:14:59;101313.91;;;18.10;39.21
33153;BME280;19509;43.862;26.176;2023-05-11T11:17:27;101307.41;;;17.59;44.46
33153;BME280;19509;43.862;26.176;2023-05-11T11:19:56;101313.69;;;17.24;43.00
33153;BME280;19509;43.862;26.176;2023-05-11T11:25:09;101304.44;;;17.84;42.06
33153;BME280;19509;43.862;26.176;2023-05-11T11:30:29;101303.06;;;17.46;38.34
33153;BME280;19509;43.862;26.176;2023-05-11T11:38:19;101287.72;;;18.37;39.39
33153;BME280;19509;43.862;26.176;2023-05-11T11:40:49;101289.84;;;19.14;37.30
33153;BME280;19509;43.862;26.176;2023-05-11T11:43:22;101292.94;;;20.01;37.73
33153;BME280;19509;43.862;26.176;2023-05-11T11:46:01;101288.59;;;19.22;36.56
33153;BME280;19509;43.862;26.176;2023-05-11T11:51:08;101285.47;;;19.13;37.73
33153;BME280;19509;43.862;26.176;2023-05-11T11:56:08;101274.59;;;18.97;38.79
33153;BME280;19509;43.862;26.176;2023-05-11T11:58:57;101272.16;;;18.50;38.96
33153;BME280;19509;43.862;26.176;2023-05-11T12:01:27;101277.69;;;17.81;38.88
33153;BME280;19509;43.862;26.176;2023-05-11T12:06:43;101272.25;;;18.55;37.14
33153;BME280;19509;43.862;26.176;2023-05-11T12:09:16;101265.63;;;18.67;37.63
33153;BME280;19509;43.862;26.176;2023-05-11T12:11:45;101262.59;;;18.98;37.51
33153;BME280;19509;43.862;26.176;2023-05-11T12:14:12;101269.47;;;19.22;40.05
33153;BME280;19509;43.862;26.176;2023-05-11T12:16:37;101266.88;;;18.60;41.66
33153;BME280;19509;43.862;26.176;2023-05-11T12:19:03;101260.84;;;18.91;38.92
33153;BME280;19509;43.862;26.176;2023-05-11T12:21:30;101259.03;;;18.97;38.14
33153;BME280;19509;43.862;26.176;2023-05-11T12:24:03;101252.16;;;18.95;39.27
33153;BME280;19509;43.862;26.176;2023-05-11T12:26:30;101251.53;;;18.87;39.30
33153;BME280;19509;43.862;26.176;2023-05-11T12:29:12;101248.56;;;18.89;38.00
33153;BME280;19509;43.862;26.176;2023-05-11T12:31:39;101238.09;;;19.20;38.79
33153;BME280;19509;43.862;26.176;2023-05-11T12:34:05;101239.00;;;19.69;39.30
33153;BME280;19509;43.862;26.176;2023-05-11T12:36:33;101241.78;;;19.52;36.61
33153;BME280;19509;43.862;26.176;2023-05-11T12:38:59;101238.16;;;19.25;39.77
33153;BME280;19509;43.862;26.176;2023-05-11T12:41:25;101235.41;;;19.25;38.63
33153;BME280;19509;43.862;26.176;2023-05-11T12:43:52;101229.13;;;18.68;38.17
33153;BME280;19509;43.862;26.176;2023-05-11T12:46:19;101231.03;;;18.34;36.67
33153;BME280;19509;43.862;26.176;2023-05-11T12:48:48;101224.34;;;18.59;36.80
33153;BME280;19509;43.862;26.176;2023-05-11T12:54:28;101226.09;;;18.82;37.72
33153;BME280;19509;43.862;26.176;2023-05-11T12:56:53;101227.75;;;18.83;40.26
33153;BME280;19509;43.862;26.176;2023-05-11T12:59:27;101215.91;;;18.94;38.73
33153;BME280;19509;43.862;26.176;2023-05-11T13:01:53;101218.41;;;18.79;37.39
33153;BME280;19509;43.862;26.176;2023-05-11T13:04:27;101219.78;;;18.14;38.05
33153;BME280;19509;43.862;26.176;2023-05-11T13:06:53;101220.06;;;17.60;38.14
33153;BME280;19509;43.862;26.176;2023-05-11T13:09:25;101213.22;;;17.98;37.66
33153;BME280;19509;43.862;26.176;2023-05-11T13:12:12;101217.31;;;18.46;38.09
33153;BME280;19509;43.862;26.176;2023-05-11T13:14:38;101211.09;;;18.51;37.53
33153;BME280;19509;43.862;26.176;2023-05-11T13:17:04;101211.38;;;18.83;41.55
33153;BME280;19509;43.862;26.176;2023-05-11T13:19:30;101202.94;;;18.84;36.51
33153;BME280;19509;43.862;26.176;2023-05-11T13:21:57;101204.59;;;18.85;37.30
33153;BME280;19509;43.862;26.176;2023-05-11T13:24:23;101204.94;;;18.89;35.87
33153;BME280;19509;43.862;26.176;2023-05-11T13:26:49;101201.13;;;18.90;36.14
33153;BME280;19509;43.862;26.176;2023-05-11T13:29:16;101197.34;;;19.35;37.38